createdAt,value
2023-02-05T00:00:28.277Z,3.57
2023-02-05T00:02:55.824Z,3.57
2023-02-05T00:05:24.628Z,3.97
2023-02-05T00:07:52.098Z,4.10
2023-02-05T00:10:19.716Z,4.60
2023-02-05T00:12:47.291Z,4.37
2023-02-05T00:15:14.786Z,3.80
2023-02-05T00:17:45.773Z,3.40
2023-02-05T00:20:13.553Z,4.10
2023-02-05T00:22:43.669Z,4.60
2023-02-05T00:25:11.333Z,4.30
2023-02-05T00:27:38.838Z,4.10
2023-02-05T00:30:07.467Z,3.93
2023-02-05T00:32:35.355Z,4.47
2023-02-05T00:35:02.858Z,5.37
2023-02-05T00:37:30.353Z,4.67
2023-02-05T00:39:59.245Z,3.80
2023-02-05T00:42:26.748Z,4.40
2023-02-05T00:44:54.425Z,4.13
2023-02-05T00:47:22.057Z,4.97
2023-02-05T00:49:49.730Z,4.20
2023-02-05T00:52:17.401Z,4.00
2023-02-05T00:54:45.353Z,4.17
2023-02-05T00:57:15.107Z,3.47
2023-02-05T00:59:42.603Z,4.10
2023-02-05T01:02:10.184Z,4.17
2023-02-05T01:04:37.672Z,4.30
2023-02-05T01:07:05.162Z,4.10
2023-02-05T01:09:32.609Z,4.37
2023-02-05T01:12:00.574Z,4.07
2023-02-05T01:14:29.627Z,4.00
2023-02-05T01:16:57.127Z,3.53
2023-02-05T01:19:24.635Z,3.17
2023-02-05T01:21:52.106Z,4.13
2023-02-05T01:24:19.703Z,4.17
2023-02-05T01:26:48.547Z,4.10
2023-02-05T01:29:16.038Z,3.67
2023-02-05T01:31:44.991Z,4.67
2023-02-05T01:34:12.614Z,3.77
2023-02-05T01:36:40.302Z,4.90
2023-02-05T01:39:07.978Z,3.73
2023-02-05T01:41:36.103Z,4.10
2023-02-05T01:44:09.114Z,3.70
2023-02-05T01:46:38.342Z,4.50
2023-02-05T01:49:09.630Z,4.10
2023-02-05T01:51:38.689Z,3.23
2023-02-05T01:54:08.058Z,4.23
2023-02-05T01:56:38.640Z,3.30
2023-02-05T01:59:09.861Z,4.03
2023-02-05T02:01:40.886Z,4.00
2023-02-05T02:04:12.459Z,3.83
2023-02-05T02:06:39.932Z,4.00
2023-02-05T02:09:08.711Z,3.93
2023-02-05T02:11:39.957Z,4.00
2023-02-05T02:14:10.610Z,4.10
2023-02-05T02:16:39.867Z,3.33
2023-02-05T02:19:17.027Z,3.53
2023-02-05T02:22:24.906Z,3.40
2023-02-05T02:25:32.552Z,4.30
2023-02-05T02:28:05.551Z,4.10
2023-02-05T02:30:39.561Z,3.90
2023-02-05T02:33:15.025Z,3.30
2023-02-05T02:35:48.215Z,4.73
2023-02-05T02:38:23.184Z,3.40
2023-02-05T02:40:55.460Z,3.50
2023-02-05T02:43:33.113Z,3.70
2023-02-05T02:46:05.370Z,3.93
2023-02-05T02:48:36.097Z,3.90
2023-02-05T02:51:06.300Z,3.33
2023-02-05T02:53:37.512Z,3.10
2023-02-05T02:56:07.175Z,3.83
2023-02-05T02:58:43.919Z,4.70
2023-02-05T03:01:13.449Z,4.03
2023-02-05T03:03:46.126Z,3.87
2023-02-05T03:06:15.487Z,3.53
2023-02-05T03:08:49.618Z,3.57
2023-02-05T03:11:17.585Z,3.60
2023-02-05T03:13:47.387Z,3.60
2023-02-05T03:16:20.515Z,4.30
2023-02-05T03:18:49.421Z,3.73
2023-02-05T03:21:19.535Z,3.40
2023-02-05T03:23:47.075Z,3.60
2023-02-05T03:26:25.206Z,3.30
2023-02-05T03:29:01.573Z,3.93
2023-02-05T03:31:36.533Z,3.40
2023-02-05T03:34:11.970Z,3.03
2023-02-05T03:36:49.441Z,3.27
2023-02-05T03:39:30.874Z,2.90
2023-02-05T03:42:10.949Z,2.97
2023-02-05T03:44:58.860Z,3.47
2023-02-05T03:47:38.812Z,3.33
2023-02-05T03:50:16.566Z,3.13
2023-02-05T03:52:49.892Z,5.70
2023-02-05T03:55:20.393Z,4.20
2023-02-05T03:57:57.353Z,3.53
2023-02-05T04:00:28.060Z,2.60
2023-02-05T04:02:56.730Z,3.10
2023-02-05T04:05:29.296Z,3.23
2023-02-05T04:07:58.255Z,3.23
2023-02-05T04:10:31.378Z,3.47
2023-02-05T04:13:01.404Z,3.40
2023-02-05T04:15:31.393Z,3.57
2023-02-05T04:18:01.240Z,4.37
2023-02-05T04:20:30.742Z,3.90
2023-02-05T04:22:59.084Z,4.23
2023-02-05T04:25:29.961Z,3.70
2023-02-05T04:28:01.416Z,3.30
2023-02-05T04:30:31.607Z,3.47
2023-02-05T04:32:59.388Z,3.43
2023-02-05T04:35:26.928Z,3.10
2023-02-05T04:37:54.779Z,3.03
2023-02-05T04:40:22.327Z,3.40
2023-02-05T04:42:49.785Z,3.20
2023-02-05T04:45:17.248Z,3.70
2023-02-05T04:47:46.020Z,3.33
2023-02-05T04:50:13.484Z,3.27
2023-02-05T04:52:41.073Z,3.97
2023-02-05T04:55:08.987Z,3.70
2023-02-05T04:57:37.180Z,4.30
2023-02-05T05:00:05.506Z,4.60
2023-02-05T05:02:33.037Z,3.73
2023-02-05T05:05:02.026Z,5.17
2023-02-05T05:07:30.760Z,4.10
2023-02-05T05:09:58.432Z,3.37
2023-02-05T05:12:25.922Z,3.77
2023-02-05T05:14:53.504Z,3.40
2023-02-05T05:17:21.286Z,3.73
2023-02-05T05:19:48.859Z,4.00
2023-02-05T05:22:17.871Z,3.50
2023-02-05T05:24:45.351Z,3.70
2023-02-05T05:27:12.947Z,3.23
2023-02-05T05:29:40.513Z,3.00
2023-02-05T05:32:08.067Z,3.53
2023-02-05T05:34:35.672Z,3.57
2023-02-05T05:37:03.198Z,3.13
2023-02-05T05:39:49.559Z,4.07
2023-02-05T05:42:34.754Z,4.30
2023-02-05T05:45:02.587Z,3.90
2023-02-05T05:47:30.092Z,3.77
2023-02-05T05:49:57.643Z,3.70
2023-02-05T05:52:25.184Z,2.90
2023-02-05T05:54:53.989Z,3.13
2023-02-05T05:57:21.926Z,3.03
2023-02-05T05:59:49.387Z,3.23
2023-02-05T06:02:16.922Z,2.80
2023-02-05T06:04:44.460Z,2.50
2023-02-05T06:07:11.973Z,3.37
2023-02-05T06:09:39.419Z,3.30
2023-02-05T06:12:10.063Z,3.30
2023-02-05T06:14:39.010Z,2.50
2023-02-05T06:17:07.308Z,3.20
2023-02-05T06:19:34.810Z,2.80
2023-02-05T06:22:04.044Z,2.67
2023-02-05T06:24:32.925Z,2.83
2023-02-05T06:27:01.594Z,2.50
2023-02-05T06:29:30.433Z,2.33
2023-02-05T06:31:57.950Z,2.20
2023-02-05T06:34:25.498Z,2.50
2023-02-05T06:36:53.043Z,3.10
2023-02-05T06:39:20.715Z,3.40
2023-02-05T06:41:48.179Z,2.47
2023-02-05T06:44:15.671Z,2.77
2023-02-05T06:46:44.642Z,1.90
2023-02-05T06:49:12.232Z,2.80
2023-02-05T06:51:39.724Z,3.30
2023-02-05T06:54:07.413Z,3.00
2023-02-05T06:56:34.859Z,2.53
2023-02-05T06:59:02.394Z,2.37
2023-02-05T07:01:29.910Z,2.23
2023-02-05T07:03:58.770Z,2.83
2023-02-05T07:06:27.211Z,2.70
2023-02-05T07:08:54.816Z,2.57
2023-02-05T07:11:23.528Z,2.60
2023-02-05T07:13:50.984Z,3.10
2023-02-05T07:16:19.169Z,2.53
2023-02-05T07:18:46.688Z,2.60
2023-02-05T07:21:17.670Z,2.70
2023-02-05T07:23:45.613Z,2.60
2023-02-05T07:26:14.637Z,2.37
2023-02-05T07:28:43.012Z,2.60
2023-02-05T07:31:15.057Z,2.23
2023-02-05T07:33:44.127Z,2.90
2023-02-05T07:36:13.766Z,2.03
2023-02-05T07:38:43.311Z,2.63
2023-02-05T07:41:12.817Z,2.23
2023-02-05T07:43:40.817Z,2.63
2023-02-05T07:46:11.079Z,2.73
2023-02-05T07:48:38.914Z,2.70
2023-02-05T07:51:07.312Z,2.73
2023-02-05T07:53:34.962Z,3.10
2023-02-05T07:56:07.533Z,2.53
2023-02-05T07:58:35.262Z,2.40
2023-02-05T08:01:03.372Z,3.30
2023-02-05T08:03:31.418Z,3.13
2023-02-05T08:05:59.192Z,2.73
2023-02-05T08:08:26.778Z,3.00
2023-02-05T08:10:58.760Z,3.10
2023-02-05T08:13:27.805Z,2.50
2023-02-05T08:15:58.152Z,2.80
2023-02-05T08:18:26.710Z,3.53
2023-02-05T08:20:55.099Z,2.70
2023-02-05T08:23:26.261Z,3.10
2023-02-05T08:25:55.001Z,3.50
2023-02-05T08:28:23.306Z,2.97
2023-02-05T08:30:52.489Z,2.40
2023-02-05T08:33:20.754Z,2.93
2023-02-05T08:35:50.248Z,2.53
2023-02-05T08:38:18.485Z,2.43
2023-02-05T08:40:46.486Z,2.90
2023-02-05T08:43:13.993Z,2.40
2023-02-05T08:45:41.978Z,2.63
2023-02-05T08:48:29.138Z,2.43
2023-02-05T08:51:07.808Z,2.73
2023-02-05T08:53:43.563Z,2.70
2023-02-05T08:56:19.967Z,3.50
2023-02-05T08:58:56.297Z,2.97
2023-02-05T09:01:24.013Z,3.27
2023-02-05T09:03:52.901Z,2.67
2023-02-05T09:06:20.550Z,2.43
2023-02-05T09:08:48.023Z,2.93
2023-02-05T09:11:15.619Z,3.10
2023-02-05T09:13:43.183Z,2.93
2023-02-05T09:16:12.041Z,2.77
2023-02-05T09:18:39.794Z,2.87
2023-02-05T09:21:10.001Z,3.47
2023-02-05T09:23:38.099Z,3.50
2023-02-05T09:26:06.939Z,2.90
2023-02-05T09:28:34.396Z,2.70
2023-02-05T09:31:06.803Z,2.87
2023-02-05T09:33:34.321Z,2.93
2023-02-05T09:36:08.537Z,3.20
2023-02-05T09:38:36.720Z,3.20
2023-02-05T09:41:09.443Z,3.30
2023-02-05T09:43:46.527Z,2.60
2023-02-05T09:46:21.885Z,2.80
2023-02-05T09:48:55.674Z,3.50
2023-02-05T09:51:33.239Z,3.37
2023-02-05T09:54:07.421Z,3.10
2023-02-05T09:56:37.354Z,3.63
2023-02-05T09:59:06.425Z,3.30
2023-02-05T10:01:44.326Z,3.10
2023-02-05T10:04:12.328Z,3.27
2023-02-05T10:06:57.515Z,2.80
2023-02-05T10:09:42.951Z,2.90
2023-02-05T10:12:23.494Z,3.10
2023-02-05T10:15:17.283Z,4.37
2023-02-05T10:18:08.780Z,3.40
2023-02-05T10:21:04.755Z,4.20
2023-02-05T10:24:13.886Z,2.90
2023-02-05T10:26:47.591Z,3.90
2023-02-05T10:29:34.806Z,4.03
2023-02-05T10:32:15.177Z,3.60
2023-02-05T10:34:53.835Z,3.83
2023-02-05T10:37:40.339Z,3.27
2023-02-05T10:40:16.290Z,3.40
2023-02-05T10:42:50.290Z,3.63
2023-02-05T10:45:22.620Z,3.70
2023-02-05T10:48:24.371Z,3.93
2023-02-05T10:50:58.568Z,4.00
2023-02-05T10:53:28.343Z,4.57
2023-02-05T10:55:58.454Z,4.20
2023-02-05T10:58:38.618Z,4.80
2023-02-05T11:01:07.754Z,4.37
2023-02-05T11:03:35.879Z,5.07
2023-02-05T11:06:05.769Z,3.83
2023-02-05T11:08:36.280Z,4.80
2023-02-05T11:11:21.711Z,5.10
2023-02-05T11:14:03.583Z,5.30
2023-02-05T11:16:54.403Z,4.10
2023-02-05T11:19:28.698Z,3.70
2023-02-05T11:21:59.769Z,3.87
2023-02-05T11:24:30.765Z,3.97
2023-02-05T11:27:33.752Z,3.70
2023-02-05T11:30:37.667Z,8.77
2023-02-05T11:33:33.148Z,4.80
2023-02-05T11:36:03.333Z,4.40
2023-02-05T11:38:43.190Z,3.23
2023-02-05T11:41:14.270Z,3.73
2023-02-05T11:43:49.750Z,3.53
2023-02-05T11:46:20.424Z,6.37
2023-02-05T11:48:57.421Z,5.33
2023-02-05T11:51:44.645Z,3.40
2023-02-05T11:54:21.346Z,4.10
2023-02-05T11:57:07.422Z,3.80
2023-02-05T11:59:36.869Z,4.60
2023-02-05T12:02:31.347Z,4.17
2023-02-05T12:05:01.954Z,4.00
2023-02-05T12:07:35.814Z,3.90
2023-02-05T12:10:03.363Z,4.67
2023-02-05T12:12:39.302Z,4.60
2023-02-05T12:15:19.835Z,5.10
2023-02-05T12:17:56.152Z,5.03
2023-02-05T12:20:28.919Z,4.60
2023-02-05T12:23:23.378Z,5.70
2023-02-05T12:26:01.208Z,4.60
2023-02-05T12:28:41.215Z,5.67
2023-02-05T12:31:23.141Z,6.73
2023-02-05T12:34:06.784Z,6.27
2023-02-05T12:36:49.258Z,4.27
2023-02-05T12:39:29.374Z,5.13
2023-02-05T12:42:07.498Z,5.10
2023-02-05T12:44:48.315Z,4.90
2023-02-05T12:47:34.251Z,4.70
2023-02-05T12:50:13.469Z,7.20
2023-02-05T12:53:08.087Z,4.90
2023-02-05T12:55:52.750Z,8.17
2023-02-05T12:58:56.278Z,6.30
2023-02-05T13:01:27.226Z,4.60
2023-02-05T13:04:11.148Z,4.90
2023-02-05T13:06:49.607Z,4.60
2023-02-05T13:09:22.640Z,6.07
2023-02-05T13:11:58.174Z,6.20
2023-02-05T13:14:30.439Z,5.20
2023-02-05T13:17:03.946Z,12.30
2023-02-05T13:19:39.252Z,5.97
2023-02-05T13:22:33.607Z,5.10
2023-02-05T13:25:27.324Z,5.00
2023-02-05T13:28:26.107Z,17.13
2023-02-05T13:30:56.740Z,9.10
2023-02-05T13:33:24.451Z,6.27
2023-02-05T13:36:05.076Z,8.57
2023-02-05T13:38:49.402Z,7.03
2023-02-05T13:41:50.796Z,8.27
2023-02-05T13:44:44.327Z,5.10
2023-02-05T13:47:32.604Z,6.10
2023-02-05T13:50:23.310Z,4.53
2023-02-05T13:53:19.327Z,9.23
2023-02-05T13:56:18.111Z,4.80
2023-02-05T13:58:50.542Z,5.50
2023-02-05T14:01:23.641Z,4.20
2023-02-05T14:03:59.064Z,4.33
2023-02-05T14:06:30.966Z,5.43
2023-02-05T14:09:09.461Z,3.80
2023-02-05T14:11:53.483Z,3.47
2023-02-05T14:14:30.351Z,5.43
2023-02-05T14:16:59.110Z,4.73
2023-02-05T14:19:43.748Z,4.50
2023-02-05T14:22:13.816Z,8.40
2023-02-05T14:24:48.213Z,5.23
2023-02-05T14:27:48.725Z,4.13
2023-02-05T14:30:40.868Z,3.80
2023-02-05T14:33:27.687Z,4.60
2023-02-05T14:36:43.899Z,4.63
2023-02-05T14:39:26.836Z,4.43
2023-02-05T14:41:59.165Z,4.47
2023-02-05T14:44:30.638Z,4.20
2023-02-05T14:47:02.390Z,4.07
2023-02-05T14:49:38.043Z,3.80
2023-02-05T14:52:14.809Z,3.77
2023-02-05T14:54:47.387Z,4.50
2023-02-05T14:57:23.082Z,4.47
2023-02-05T14:59:53.299Z,4.17
2023-02-05T15:02:57.657Z,4.77
2023-02-05T15:05:34.104Z,4.40
2023-02-05T15:08:10.018Z,5.27
2023-02-05T15:10:47.422Z,4.13
2023-02-05T15:13:17.860Z,5.60
2023-02-05T15:16:23.931Z,4.70
2023-02-05T15:18:53.825Z,4.90
2023-02-05T15:21:26.110Z,4.57
2023-02-05T15:24:00.534Z,4.47
2023-02-05T15:26:37.419Z,4.30
2023-02-05T15:29:09.011Z,4.47
2023-02-05T15:31:43.021Z,4.20
2023-02-05T15:34:35.572Z,5.20
2023-02-05T15:37:06.748Z,3.90
2023-02-05T15:39:45.925Z,4.97
2023-02-05T15:42:17.860Z,4.30
2023-02-05T15:44:46.697Z,4.27
2023-02-05T15:47:19.473Z,4.40
2023-02-05T15:49:49.673Z,4.63
2023-02-05T15:52:19.919Z,4.30
2023-02-05T15:54:47.666Z,4.00
2023-02-05T15:57:21.356Z,3.60
2023-02-05T15:59:51.308Z,4.03
2023-02-05T16:02:22.413Z,4.47
2023-02-05T16:04:56.204Z,4.63
2023-02-05T16:07:26.284Z,4.90
2023-02-05T16:09:56.206Z,4.50
2023-02-05T16:12:24.461Z,4.20
2023-02-05T16:15:04.682Z,5.10
2023-02-05T16:17:37.802Z,4.40
2023-02-05T16:20:17.158Z,4.87
2023-02-05T16:22:47.185Z,5.00
2023-02-05T16:25:33.315Z,4.10
2023-02-05T16:28:04.925Z,4.10
2023-02-05T16:30:40.348Z,5.93
2023-02-05T16:33:19.057Z,5.10
2023-02-05T16:35:48.910Z,4.13
2023-02-05T16:38:19.559Z,4.70
2023-02-05T16:40:50.316Z,4.57
2023-02-05T16:43:30.297Z,5.50
2023-02-05T16:46:25.306Z,5.60
2023-02-05T16:48:54.544Z,5.00
2023-02-05T16:51:37.736Z,5.83
2023-02-05T16:54:28.073Z,5.10
2023-02-05T16:57:00.273Z,5.73
2023-02-05T16:59:34.305Z,4.57
2023-02-05T17:02:04.296Z,6.10
2023-02-05T17:04:35.437Z,5.20
2023-02-05T17:07:06.842Z,4.87
2023-02-05T17:09:37.062Z,6.17
2023-02-05T17:12:36.429Z,7.00
2023-02-05T17:15:26.591Z,5.10
2023-02-05T17:17:56.911Z,7.97
2023-02-05T17:20:27.659Z,7.30
2023-02-05T17:23:20.053Z,5.70
2023-02-05T17:25:55.074Z,6.27
2023-02-05T17:28:25.557Z,6.00
2023-02-05T17:30:54.880Z,6.77
2023-02-05T17:33:26.159Z,6.57
2023-02-05T17:35:53.811Z,5.43
2023-02-05T17:38:23.699Z,4.97
2023-02-05T17:41:11.407Z,4.87
2023-02-05T17:43:39.414Z,6.20
2023-02-05T17:46:11.408Z,5.13
2023-02-05T17:48:40.261Z,6.47
2023-02-05T17:51:07.853Z,6.57
2023-02-05T17:53:35.298Z,6.30
2023-02-05T17:56:02.871Z,6.83
2023-02-05T17:58:33.959Z,5.10
2023-02-05T18:01:01.501Z,5.00
2023-02-05T18:03:28.988Z,5.43
2023-02-05T18:05:58.160Z,5.40
2023-02-05T18:08:25.747Z,5.00
2023-02-05T18:10:53.239Z,6.03
2023-02-05T18:13:22.177Z,6.03
2023-02-05T18:15:52.168Z,5.53
2023-02-05T18:18:19.851Z,5.00
2023-02-05T18:20:47.342Z,5.47
2023-02-05T18:23:28.392Z,6.40
2023-02-05T18:25:57.258Z,5.70
2023-02-05T18:28:25.357Z,6.37
2023-02-05T18:31:01.020Z,7.23
2023-02-05T18:33:28.797Z,6.40
2023-02-05T18:36:01.736Z,6.40
2023-02-05T18:38:34.848Z,5.50
2023-02-05T18:41:06.837Z,5.40
2023-02-05T18:43:36.332Z,5.73
2023-02-05T18:46:08.114Z,6.43
2023-02-05T18:48:36.942Z,6.60
2023-02-05T18:51:09.030Z,6.63
2023-02-05T18:53:39.133Z,6.30
2023-02-05T18:56:09.937Z,6.23
2023-02-05T18:58:37.761Z,6.20
2023-02-05T19:01:09.596Z,6.03
2023-02-05T19:03:38.625Z,6.03
2023-02-05T19:06:06.550Z,5.03
2023-02-05T19:08:34.084Z,5.70
2023-02-05T19:11:07.086Z,6.30
2023-02-05T19:13:36.924Z,5.70
2023-02-05T19:16:06.294Z,6.17
2023-02-05T19:18:33.844Z,5.90
2023-02-05T19:21:05.320Z,6.50
2023-02-05T19:23:32.863Z,6.57
2023-02-05T19:26:05.487Z,5.90
2023-02-05T19:28:33.453Z,6.43
2023-02-05T19:31:03.986Z,6.37
2023-02-05T19:33:36.115Z,6.27
2023-02-05T19:36:20.619Z,5.43
2023-02-05T19:38:48.332Z,7.87
2023-02-05T19:41:20.033Z,6.30
2023-02-05T19:43:51.870Z,7.33
2023-02-05T19:46:21.058Z,6.80
2023-02-05T19:48:49.090Z,5.80
2023-02-05T19:51:18.956Z,7.57
2023-02-05T19:53:47.453Z,5.80
2023-02-05T19:56:18.188Z,6.37
2023-02-05T19:58:47.542Z,5.97
2023-02-05T20:01:16.455Z,6.10
2023-02-05T20:03:44.805Z,5.23
2023-02-05T20:06:15.062Z,5.87
2023-02-05T20:08:43.111Z,5.77
2023-02-05T20:11:10.902Z,5.90
2023-02-05T20:13:41.450Z,7.20
2023-02-05T20:16:11.747Z,5.03
2023-02-05T20:18:39.651Z,6.13
2023-02-05T20:21:08.079Z,5.80
2023-02-05T20:23:35.867Z,6.10
2023-02-05T20:26:05.312Z,6.47
2023-02-05T20:28:34.933Z,5.50
2023-02-05T20:31:24.647Z,5.93
2023-02-05T20:33:52.256Z,5.20
2023-02-05T20:36:19.719Z,5.00
2023-02-05T20:38:47.183Z,6.27
2023-02-05T20:41:18.018Z,6.10
2023-02-05T20:43:46.193Z,5.63
2023-02-05T20:46:15.183Z,7.63
2023-02-05T20:48:42.880Z,5.57
2023-02-05T20:51:12.956Z,6.90
2023-02-05T20:53:41.250Z,6.67
2023-02-05T20:56:11.360Z,7.13
2023-02-05T20:58:38.879Z,6.37
2023-02-05T21:01:07.825Z,7.30
2023-02-05T21:03:37.616Z,7.20
2023-02-05T21:06:05.719Z,8.07
2023-02-05T21:08:33.832Z,5.80
2023-02-05T21:11:02.357Z,6.97
2023-02-05T21:13:29.874Z,8.90
2023-02-05T21:15:59.002Z,7.70
2023-02-05T21:18:27.843Z,6.97
2023-02-05T21:21:05.591Z,7.80
2023-02-05T21:23:33.083Z,9.97
2023-02-05T21:26:00.650Z,8.23
2023-02-05T21:28:28.483Z,5.87
2023-02-05T21:31:02.037Z,8.53
2023-02-05T21:33:29.883Z,8.47
2023-02-05T21:35:59.030Z,7.40
2023-02-05T21:38:30.730Z,8.07
2023-02-05T21:40:58.357Z,6.87
2023-02-05T21:43:26.059Z,8.17
2023-02-05T21:45:53.719Z,8.03
2023-02-05T21:48:21.224Z,10.57
2023-02-05T21:50:48.736Z,8.20
2023-02-05T21:53:18.014Z,9.30
2023-02-05T21:55:45.506Z,7.90
2023-02-05T21:58:12.974Z,8.80
2023-02-05T22:00:40.566Z,8.27
2023-02-05T22:03:08.438Z,7.77
2023-02-05T22:05:35.965Z,7.60
2023-02-05T22:08:03.580Z,7.60
2023-02-05T22:10:32.568Z,8.00
2023-02-05T22:13:00.128Z,8.73
2023-02-05T22:15:27.620Z,7.17
2023-02-05T22:17:55.300Z,9.13
2023-02-05T22:20:22.858Z,8.47
2023-02-05T22:22:50.462Z,8.87
2023-02-05T22:25:18.527Z,8.90
2023-02-05T22:27:47.788Z,8.97
2023-02-05T22:30:15.399Z,9.10
2023-02-05T22:32:42.872Z,8.20
2023-02-05T22:35:10.371Z,9.00
2023-02-05T22:37:37.872Z,9.87
2023-02-05T22:40:06.254Z,9.33
2023-02-05T22:42:33.982Z,11.53
2023-02-05T22:45:03.028Z,9.37
2023-02-05T22:47:30.578Z,9.17
2023-02-05T22:50:01.299Z,10.93
2023-02-05T22:52:28.768Z,11.17
2023-02-05T22:54:56.242Z,10.10
2023-02-05T22:57:23.765Z,9.43
2023-02-05T22:59:51.330Z,10.97
2023-02-05T23:02:20.270Z,11.20
2023-02-05T23:04:47.771Z,9.87
2023-02-05T23:07:15.314Z,10.27
2023-02-05T23:09:43.170Z,10.60
2023-02-05T23:12:11.427Z,10.47
2023-02-05T23:14:39.027Z,11.40
2023-02-05T23:17:06.660Z,9.03
2023-02-05T23:19:35.702Z,9.90
2023-02-05T23:22:03.259Z,11.47
2023-02-05T23:24:30.732Z,11.07
2023-02-05T23:26:58.950Z,11.60
2023-02-05T23:29:27.016Z,11.73
2023-02-05T23:31:54.577Z,9.27
2023-02-05T23:34:22.202Z,9.73
2023-02-05T23:36:51.215Z,10.67
2023-02-05T23:39:19.020Z,8.73
2023-02-05T23:41:46.693Z,8.53
2023-02-05T23:44:17.710Z,9.60
2023-02-05T23:46:46.588Z,9.40
2023-02-05T23:49:14.667Z,10.90
2023-02-05T23:51:42.422Z,8.93
2023-02-05T23:54:12.176Z,10.73
2023-02-05T23:56:40.413Z,12.33
2023-02-05T23:59:08.924Z,9.10
